Check out our new PWSWeather beta!
PWSweather.com
Personal Weather Stations
Station Observations
KMNGREYC2
Grey Cloud Island, Grey Cloud Island, MN 55071

Grey Cloud IslandGrey Cloud Island, MN 55071

Lat: 44.799333, Lon: -92.987851

Elevation: 700

Station Type: Davis VP2

www.jagielski.com/weather/conditions.htm

High Low Average
Temperature 35.5°F1.9°C 32.8°F0.4°C 33.8°F1.0°C
Dew Point 34.5°F1.4°C 31.5°F-0.3°C 32.7°F0.4°C
Winds 2.0 mph 3.2 kmh Calm Calm Calm SECalm SE
Wind Gusts 8.0 mph12.9 kmh 1.0 mph1.6 kmh 4.0 mph6.4 kmh
Humidity 96% 95% 96%
Pressure 29.38 in994.9 mb 29.35 in993.9 mb -
Precipitation 0.00 in0.0 mm - -
Hour Temp Dew Point Humidity Winds Wind Gusts Pressure Precip Precip Rate Daily Precip Total
06:15 PM 35.5°F1.9°C 34.5°F1.4°C 96% Calm Calm 1.0 mph1.6 kmh 29.37 in994.6 mb 0.01 in0.3 mm 0.04 in1.0 mm 0.01 in0.3 mm
06:30 PM 35.3°F1.8°C 34.3°F1.3°C 96% 1.0 mph SSW1.6 kmh SSW 4.0 mph6.4 kmh 29.37 in994.6 mb 0.01 in0.3 mm 0.00 in0.0 mm 0.01 in0.3 mm
06:45 PM 35.1°F1.7°C 34.1°F1.2°C 96% 1.0 mph SSW1.6 kmh SSW 3.0 mph4.8 kmh 29.38 in994.9 mb 0.01 in0.3 mm 0.00 in0.0 mm 0.01 in0.3 mm
07:00 PM 34.8°F1.6°C 33.8°F1.0°C 96% Calm Calm 8.0 mph12.9 kmh 29.38 in994.9 mb 0.01 in0.3 mm 0.00 in0.0 mm 0.01 in0.3 mm
07:15 PM 34.6°F1.4°C 33.6°F0.9°C 96% 1.0 mph S1.6 kmh S 4.0 mph6.4 kmh 29.38 in994.9 mb 0.01 in0.3 mm 0.00 in0.0 mm 0.01 in0.3 mm
07:30 PM 34.3°F1.3°C 33.3°F0.7°C 96% Calm Calm 5.0 mph8.0 kmh 29.37 in994.6 mb 0.01 in0.3 mm 0.00 in0.0 mm 0.01 in0.3 mm
07:45 PM 34.1°F1.2°C 33.1°F0.6°C 96% Calm Calm 6.0 mph9.7 kmh 29.37 in994.6 mb 0.01 in0.3 mm 0.00 in0.0 mm 0.01 in0.3 mm
08:00 PM 33.9°F1.1°C 32.9°F0.5°C 96% 2.0 mph SE3.2 kmh SE 6.0 mph9.7 kmh 29.37 in994.6 mb 0.01 in0.3 mm 0.00 in0.0 mm 0.01 in0.3 mm
08:15 PM 33.8°F1.0°C 32.8°F0.4°C 96% 1.0 mph SE1.6 kmh SE 4.0 mph6.4 kmh 29.36 in994.2 mb 0.01 in0.3 mm 0.00 in0.0 mm 0.01 in0.3 mm
08:30 PM 33.7°F0.9°C 32.7°F0.4°C 96% Calm Calm 4.0 mph6.4 kmh 29.35 in993.9 mb 0.01 in0.3 mm 0.00 in0.0 mm 0.01 in0.3 mm
08:45 PM 33.7°F0.9°C 32.7°F0.4°C 96% Calm Calm 5.0 mph8.0 kmh 29.36 in994.2 mb 0.00 in0.0 mm 0.00 in0.0 mm 0.01 in0.3 mm
09:00 PM 33.6°F0.9°C 32.6°F0.3°C 96% 2.0 mph SE3.2 kmh SE 5.0 mph8.0 kmh 29.36 in994.2 mb 0.00 in0.0 mm 0.00 in0.0 mm 0.01 in0.3 mm
09:15 PM 33.6°F0.9°C 32.3°F0.2°C 95% Calm Calm 6.0 mph9.7 kmh 29.35 in993.9 mb 0.00 in0.0 mm 0.00 in0.0 mm 0.01 in0.3 mm
09:30 PM 33.5°F0.8°C 32.2°F0.1°C 95% Calm Calm 6.0 mph9.7 kmh 29.36 in994.2 mb 0.00 in0.0 mm 0.00 in0.0 mm 0.01 in0.3 mm
09:45 PM 33.5°F0.8°C 32.2°F0.1°C 95% Calm Calm 2.0 mph3.2 kmh 29.36 in994.2 mb 0.00 in0.0 mm 0.00 in0.0 mm 0.01 in0.3 mm
10:00 PM 33.4°F0.8°C 32.1°F0.1°C 95% Calm Calm 5.0 mph8.0 kmh 29.36 in994.2 mb 0.00 in0.0 mm 0.00 in0.0 mm 0.01 in0.3 mm
10:15 PM 33.3°F0.7°C 32.0°F0.0°C 95% Calm Calm 3.0 mph4.8 kmh 29.36 in994.2 mb 0.00 in0.0 mm 0.00 in0.0 mm 0.01 in0.3 mm
10:30 PM 33.3°F0.7°C 32.0°F0.0°C 95% 1.0 mph ESE1.6 kmh ESE 4.0 mph6.4 kmh 29.36 in994.2 mb 0.00 in0.0 mm 0.00 in0.0 mm 0.01 in0.3 mm
10:45 PM 33.2°F0.7°C 31.9°F-0.1°C 95% Calm Calm 3.0 mph4.8 kmh 29.36 in994.2 mb 0.00 in0.0 mm 0.00 in0.0 mm 0.01 in0.3 mm
11:00 PM 33.1°F0.6°C 31.8°F-0.1°C 95% Calm Calm 3.0 mph4.8 kmh 29.36 in994.2 mb 0.00 in0.0 mm 0.00 in0.0 mm 0.01 in0.3 mm
11:15 PM 32.9°F0.5°C 31.6°F-0.2°C 95% Calm Calm 2.0 mph3.2 kmh 29.35 in993.9 mb 0.00 in0.0 mm 0.00 in0.0 mm 0.01 in0.3 mm
11:30 PM 32.8°F0.4°C 31.5°F-0.3°C 95% Calm Calm 5.0 mph8.0 kmh 29.36 in994.2 mb 0.00 in0.0 mm 0.00 in0.0 mm 0.01 in0.3 mm
11:45 PM 32.8°F0.4°C 31.5°F-0.3°C 95% Calm Calm 1.0 mph1.6 kmh 29.35 in993.9 mb 0.00 in0.0 mm 0.00 in0.0 mm 0.01 in0.3 mm